sensor_id;sensor_type;location;lat;lon;timestamp;P1;durP1;ratioP1;P2;durP2;ratioP2
16506;SDS011;8366;51.020;7.642;2022-09-20T00:00:36;22.20;;;5.10;;
16506;SDS011;8366;51.020;7.642;2022-09-20T00:03:03;24.13;;;4.63;;
16506;SDS011;8366;51.020;7.642;2022-09-20T00:05:32;17.53;;;4.60;;
16506;SDS011;8366;51.020;7.642;2022-09-20T00:07:59;39.43;;;5.83;;
16506;SDS011;8366;51.020;7.642;2022-09-20T00:10:28;20.07;;;4.47;;
16506;SDS011;8366;51.020;7.642;2022-09-20T00:12:58;46.33;;;5.80;;
16506;SDS011;8366;51.020;7.642;2022-09-20T00:15:26;21.47;;;4.63;;
16506;SDS011;8366;51.020;7.642;2022-09-20T00:17:52;14.60;;;4.63;;
16506;SDS011;8366;51.020;7.642;2022-09-20T00:20:19;20.17;;;5.07;;
16506;SDS011;8366;51.020;7.642;2022-09-20T00:22:45;37.47;;;5.60;;
16506;SDS011;8366;51.020;7.642;2022-09-20T00:25:13;19.83;;;5.40;;
16506;SDS011;8366;51.020;7.642;2022-09-20T00:27:40;28.50;;;5.17;;
16506;SDS011;8366;51.020;7.642;2022-09-20T00:30:07;27.47;;;5.10;;
16506;SDS011;8366;51.020;7.642;2022-09-20T00:32:36;20.60;;;4.70;;
16506;SDS011;8366;51.020;7.642;2022-09-20T00:35:02;30.67;;;4.70;;
16506;SDS011;8366;51.020;7.642;2022-09-20T00:37:35;22.80;;;4.30;;
16506;SDS011;8366;51.020;7.642;2022-09-20T00:40:03;17.50;;;4.20;;
16506;SDS011;8366;51.020;7.642;2022-09-20T00:42:31;12.33;;;4.03;;
16506;SDS011;8366;51.020;7.642;2022-09-20T00:44:58;14.70;;;4.47;;
16506;SDS011;8366;51.020;7.642;2022-09-20T00:47:28;18.40;;;5.00;;
16506;SDS011;8366;51.020;7.642;2022-09-20T00:50:02;9.50;;;4.03;;
16506;SDS011;8366;51.020;7.642;2022-09-20T00:52:32;15.27;;;4.50;;
16506;SDS011;8366;51.020;7.642;2022-09-20T00:55:00;18.17;;;4.30;;
16506;SDS011;8366;51.020;7.642;2022-09-20T00:57:28;22.43;;;4.57;;
16506;SDS011;8366;51.020;7.642;2022-09-20T00:59:59;15.37;;;4.50;;
16506;SDS011;8366;51.020;7.642;2022-09-20T01:02:29;15.13;;;4.10;;
16506;SDS011;8366;51.020;7.642;2022-09-20T01:04:56;10.07;;;4.23;;
16506;SDS011;8366;51.020;7.642;2022-09-20T01:07:24;15.60;;;4.47;;
16506;SDS011;8366;51.020;7.642;2022-09-20T01:09:51;13.30;;;4.63;;
16506;SDS011;8366;51.020;7.642;2022-09-20T01:12:18;11.90;;;4.10;;
16506;SDS011;8366;51.020;7.642;2022-09-20T01:14:46;16.63;;;4.70;;
16506;SDS011;8366;51.020;7.642;2022-09-20T01:17:13;11.97;;;4.40;;
16506;SDS011;8366;51.020;7.642;2022-09-20T01:19:41;16.83;;;4.87;;
16506;SDS011;8366;51.020;7.642;2022-09-20T01:22:15;12.73;;;4.23;;
16506;SDS011;8366;51.020;7.642;2022-09-20T01:24:49;26.13;;;4.33;;
16506;SDS011;8366;51.020;7.642;2022-09-20T01:27:20;13.27;;;4.13;;
16506;SDS011;8366;51.020;7.642;2022-09-20T01:29:56;8.73;;;3.40;;
16506;SDS011;8366;51.020;7.642;2022-09-20T01:32:32;9.20;;;3.50;;
16506;SDS011;8366;51.020;7.642;2022-09-20T01:35:04;12.00;;;3.73;;
16506;SDS011;8366;51.020;7.642;2022-09-20T01:37:32;15.30;;;4.20;;
16506;SDS011;8366;51.020;7.642;2022-09-20T01:40:05;10.93;;;4.23;;
16506;SDS011;8366;51.020;7.642;2022-09-20T01:42:36;11.83;;;4.37;;
16506;SDS011;8366;51.020;7.642;2022-09-20T01:45:08;15.00;;;4.90;;
16506;SDS011;8366;51.020;7.642;2022-09-20T01:47:37;12.57;;;4.73;;
16506;SDS011;8366;51.020;7.642;2022-09-20T01:50:11;12.17;;;4.90;;
16506;SDS011;8366;51.020;7.642;2022-09-20T01:52:54;11.60;;;4.90;;
16506;SDS011;8366;51.020;7.642;2022-09-20T01:55:52;19.00;;;4.03;;
16506;SDS011;8366;51.020;7.642;2022-09-20T01:58:55;65.63;;;5.50;;
16506;SDS011;8366;51.020;7.642;2022-09-20T02:04:36;13.33;;;4.13;;
16506;SDS011;8366;51.020;7.642;2022-09-20T02:07:32;51.57;;;5.87;;
16506;SDS011;8366;51.020;7.642;2022-09-20T02:10:07;21.80;;;3.97;;
16506;SDS011;8366;51.020;7.642;2022-09-20T02:12:50;53.53;;;5.63;;
16506;SDS011;8366;51.020;7.642;2022-09-20T02:18:24;25.73;;;4.50;;
16506;SDS011;8366;51.020;7.642;2022-09-20T02:21:02;71.40;;;6.40;;
16506;SDS011;8366;51.020;7.642;2022-09-20T02:23:39;131.10;;;8.17;;
16506;SDS011;8366;51.020;7.642;2022-09-20T02:26:19;92.60;;;7.60;;
16506;SDS011;8366;51.020;7.642;2022-09-20T02:28:55;73.63;;;6.27;;
16506;SDS011;8366;51.020;7.642;2022-09-20T02:31:32;49.07;;;5.90;;
16506;SDS011;8366;51.020;7.642;2022-09-20T02:34:17;82.53;;;6.47;;
16506;SDS011;8366;51.020;7.642;2022-09-20T02:36:53;54.73;;;6.00;;
16506;SDS011;8366;51.020;7.642;2022-09-20T02:39:26;50.77;;;5.93;;
16506;SDS011;8366;51.020;7.642;2022-09-20T02:41:59;28.77;;;5.80;;
16506;SDS011;8366;51.020;7.642;2022-09-20T02:44:37;39.73;;;5.17;;
16506;SDS011;8366;51.020;7.642;2022-09-20T02:47:12;44.13;;;5.50;;
16506;SDS011;8366;51.020;7.642;2022-09-20T02:49:52;34.00;;;5.30;;
16506;SDS011;8366;51.020;7.642;2022-09-20T02:52:26;44.23;;;6.10;;
16506;SDS011;8366;51.020;7.642;2022-09-20T02:54:57;31.40;;;4.60;;
16506;SDS011;8366;51.020;7.642;2022-09-20T02:57:30;39.13;;;5.97;;
16506;SDS011;8366;51.020;7.642;2022-09-20T03:00:02;54.17;;;5.43;;
16506;SDS011;8366;51.020;7.642;2022-09-20T03:02:34;45.73;;;5.93;;
16506;SDS011;8366;51.020;7.642;2022-09-20T03:05:09;41.90;;;5.30;;
16506;SDS011;8366;51.020;7.642;2022-09-20T03:07:42;27.07;;;4.50;;
16506;SDS011;8366;51.020;7.642;2022-09-20T03:10:20;52.07;;;6.23;;
16506;SDS011;8366;51.020;7.642;2022-09-20T03:12:54;57.03;;;6.20;;
16506;SDS011;8366;51.020;7.642;2022-09-20T03:15:28;69.30;;;6.63;;
16506;SDS011;8366;51.020;7.642;2022-09-20T03:18:01;40.70;;;5.47;;
16506;SDS011;8366;51.020;7.642;2022-09-20T03:20:34;64.00;;;6.17;;
16506;SDS011;8366;51.020;7.642;2022-09-20T03:23:09;41.77;;;5.20;;
16506;SDS011;8366;51.020;7.642;2022-09-20T03:25:46;31.13;;;4.80;;
16506;SDS011;8366;51.020;7.642;2022-09-20T03:28:22;50.17;;;5.10;;
16506;SDS011;8366;51.020;7.642;2022-09-20T03:31:03;97.83;;;7.30;;
16506;SDS011;8366;51.020;7.642;2022-09-20T03:33:39;46.60;;;5.83;;
16506;SDS011;8366;51.020;7.642;2022-09-20T03:36:15;55.40;;;6.53;;
16506;SDS011;8366;51.020;7.642;2022-09-20T03:39:00;47.07;;;6.00;;
16506;SDS011;8366;51.020;7.642;2022-09-20T03:44:29;53.30;;;6.20;;
16506;SDS011;8366;51.020;7.642;2022-09-20T03:47:02;50.57;;;5.73;;
16506;SDS011;8366;51.020;7.642;2022-09-20T03:49:42;102.37;;;7.93;;
16506;SDS011;8366;51.020;7.642;2022-09-20T03:52:24;51.97;;;5.67;;
16506;SDS011;8366;51.020;7.642;2022-09-20T03:57:55;41.90;;;5.57;;
16506;SDS011;8366;51.020;7.642;2022-09-20T04:00:34;41.30;;;5.30;;
16506;SDS011;8366;51.020;7.642;2022-09-20T04:03:22;21.77;;;4.83;;
16506;SDS011;8366;51.020;7.642;2022-09-20T04:06:00;31.93;;;5.20;;
16506;SDS011;8366;51.020;7.642;2022-09-20T04:08:53;39.10;;;5.60;;
16506;SDS011;8366;51.020;7.642;2022-09-20T04:11:27;26.77;;;4.93;;
16506;SDS011;8366;51.020;7.642;2022-09-20T04:13:57;35.60;;;5.03;;
16506;SDS011;8366;51.020;7.642;2022-09-20T04:16:32;29.83;;;4.63;;
16506;SDS011;8366;51.020;7.642;2022-09-20T04:19:02;37.03;;;5.70;;
16506;SDS011;8366;51.020;7.642;2022-09-20T04:21:38;50.53;;;5.80;;
16506;SDS011;8366;51.020;7.642;2022-09-20T04:24:10;57.57;;;5.63;;
16506;SDS011;8366;51.020;7.642;2022-09-20T04:26:43;43.43;;;5.50;;
16506;SDS011;8366;51.020;7.642;2022-09-20T04:29:16;63.50;;;6.37;;
16506;SDS011;8366;51.020;7.642;2022-09-20T04:31:51;50.87;;;5.57;;
16506;SDS011;8366;51.020;7.642;2022-09-20T04:34:22;68.27;;;5.80;;
16506;SDS011;8366;51.020;7.642;2022-09-20T04:37:14;33.20;;;5.07;;
16506;SDS011;8366;51.020;7.642;2022-09-20T04:39:51;20.87;;;4.57;;
16506;SDS011;8366;51.020;7.642;2022-09-20T04:45:30;45.43;;;6.27;;
16506;SDS011;8366;51.020;7.642;2022-09-20T04:48:18;32.13;;;5.50;;
16506;SDS011;8366;51.020;7.642;2022-09-20T04:53:51;40.70;;;6.00;;
16506;SDS011;8366;51.020;7.642;2022-09-20T04:56:32;22.23;;;5.30;;
16506;SDS011;8366;51.020;7.642;2022-09-20T04:59:07;30.30;;;5.77;;
16506;SDS011;8366;51.020;7.642;2022-09-20T05:05:22;26.70;;;5.73;;
16506;SDS011;8366;51.020;7.642;2022-09-20T05:08:18;14.70;;;5.10;;
16506;SDS011;8366;51.020;7.642;2022-09-20T05:11:29;11.27;;;4.60;;
16506;SDS011;8366;51.020;7.642;2022-09-20T05:14:20;12.83;;;5.00;;
16506;SDS011;8366;51.020;7.642;2022-09-20T05:16:57;20.20;;;5.20;;
16506;SDS011;8366;51.020;7.642;2022-09-20T05:19:30;34.03;;;6.90;;
16506;SDS011;8366;51.020;7.642;2022-09-20T05:22:19;43.23;;;6.50;;
16506;SDS011;8366;51.020;7.642;2022-09-20T05:25:05;31.20;;;7.07;;
16506;SDS011;8366;51.020;7.642;2022-09-20T05:27:55;26.57;;;5.87;;
16506;SDS011;8366;51.020;7.642;2022-09-20T05:30:25;54.17;;;7.30;;
16506;SDS011;8366;51.020;7.642;2022-09-20T05:33:00;41.90;;;8.50;;
16506;SDS011;8366;51.020;7.642;2022-09-20T05:35:35;43.30;;;7.30;;
16506;SDS011;8366;51.020;7.642;2022-09-20T05:38:10;40.60;;;6.93;;
16506;SDS011;8366;51.020;7.642;2022-09-20T05:40:44;42.23;;;6.53;;
16506;SDS011;8366;51.020;7.642;2022-09-20T05:43:21;37.87;;;6.77;;
16506;SDS011;8366;51.020;7.642;2022-09-20T05:45:56;30.67;;;6.87;;
16506;SDS011;8366;51.020;7.642;2022-09-20T05:48:31;19.30;;;6.53;;
16506;SDS011;8366;51.020;7.642;2022-09-20T05:51:04;9.27;;;5.90;;
16506;SDS011;8366;51.020;7.642;2022-09-20T05:53:49;17.80;;;5.90;;
16506;SDS011;8366;51.020;7.642;2022-09-20T05:56:26;11.37;;;5.80;;
16506;SDS011;8366;51.020;7.642;2022-09-20T06:01:48;14.03;;;6.53;;
16506;SDS011;8366;51.020;7.642;2022-09-20T06:04:23;19.40;;;6.83;;
16506;SDS011;8366;51.020;7.642;2022-09-20T06:06:56;16.00;;;7.20;;
16506;SDS011;8366;51.020;7.642;2022-09-20T06:09:29;16.60;;;7.27;;
16506;SDS011;8366;51.020;7.642;2022-09-20T06:12:11;18.93;;;7.60;;
16506;SDS011;8366;51.020;7.642;2022-09-20T06:14:46;24.23;;;8.27;;
16506;SDS011;8366;51.020;7.642;2022-09-20T06:17:19;33.07;;;8.37;;
16506;SDS011;8366;51.020;7.642;2022-09-20T06:19:51;22.33;;;8.27;;
16506;SDS011;8366;51.020;7.642;2022-09-20T06:22:31;24.60;;;7.37;;
16506;SDS011;8366;51.020;7.642;2022-09-20T06:25:00;16.43;;;8.00;;
16506;SDS011;8366;51.020;7.642;2022-09-20T06:27:29;26.50;;;8.73;;
16506;SDS011;8366;51.020;7.642;2022-09-20T06:30:02;24.00;;;9.13;;
16506;SDS011;8366;51.020;7.642;2022-09-20T06:32:30;15.30;;;8.00;;
16506;SDS011;8366;51.020;7.642;2022-09-20T06:34:58;17.50;;;8.27;;
16506;SDS011;8366;51.020;7.642;2022-09-20T06:37:36;20.70;;;8.77;;
16506;SDS011;8366;51.020;7.642;2022-09-20T06:40:30;22.03;;;7.57;;
16506;SDS011;8366;51.020;7.642;2022-09-20T06:43:27;20.77;;;8.50;;
16506;SDS011;8366;51.020;7.642;2022-09-20T06:45:56;15.50;;;8.03;;
16506;SDS011;8366;51.020;7.642;2022-09-20T06:48:23;17.57;;;8.50;;
16506;SDS011;8366;51.020;7.642;2022-09-20T06:50:50;16.03;;;8.80;;
16506;SDS011;8366;51.020;7.642;2022-09-20T06:53:16;14.37;;;7.90;;
16506;SDS011;8366;51.020;7.642;2022-09-20T06:55:44;17.33;;;9.03;;
16506;SDS011;8366;51.020;7.642;2022-09-20T06:58:11;15.13;;;8.60;;
16506;SDS011;8366;51.020;7.642;2022-09-20T07:00:38;18.73;;;9.63;;
16506;SDS011;8366;51.020;7.642;2022-09-20T07:03:06;18.60;;;9.17;;
16506;SDS011;8366;51.020;7.642;2022-09-20T07:05:33;19.53;;;10.03;;
16506;SDS011;8366;51.020;7.642;2022-09-20T07:08:00;16.17;;;9.63;;
16506;SDS011;8366;51.020;7.642;2022-09-20T07:10:27;18.53;;;9.60;;
16506;SDS011;8366;51.020;7.642;2022-09-20T07:12:54;18.60;;;9.87;;
16506;SDS011;8366;51.020;7.642;2022-09-20T07:15:23;18.03;;;9.80;;
16506;SDS011;8366;51.020;7.642;2022-09-20T07:17:50;20.53;;;9.67;;
16506;SDS011;8366;51.020;7.642;2022-09-20T07:20:18;18.10;;;9.70;;
16506;SDS011;8366;51.020;7.642;2022-09-20T07:22:45;17.87;;;10.17;;
16506;SDS011;8366;51.020;7.642;2022-09-20T07:25:11;19.57;;;10.57;;
16506;SDS011;8366;51.020;7.642;2022-09-20T07:27:38;21.33;;;10.97;;
16506;SDS011;8366;51.020;7.642;2022-09-20T07:30:05;23.10;;;10.53;;
16506;SDS011;8366;51.020;7.642;2022-09-20T07:32:32;21.80;;;10.40;;
16506;SDS011;8366;51.020;7.642;2022-09-20T07:34:59;22.60;;;11.90;;
16506;SDS011;8366;51.020;7.642;2022-09-20T07:37:28;19.23;;;10.20;;
16506;SDS011;8366;51.020;7.642;2022-09-20T07:39:55;19.20;;;10.60;;
16506;SDS011;8366;51.020;7.642;2022-09-20T07:42:21;20.17;;;10.17;;
16506;SDS011;8366;51.020;7.642;2022-09-20T07:44:48;22.00;;;11.40;;
16506;SDS011;8366;51.020;7.642;2022-09-20T07:47:16;22.77;;;11.53;;
16506;SDS011;8366;51.020;7.642;2022-09-20T07:49:43;22.80;;;12.50;;
16506;SDS011;8366;51.020;7.642;2022-09-20T07:52:09;19.67;;;10.30;;
16506;SDS011;8366;51.020;7.642;2022-09-20T07:54:37;21.03;;;10.63;;
16506;SDS011;8366;51.020;7.642;2022-09-20T07:57:03;22.67;;;10.93;;
16506;SDS011;8366;51.020;7.642;2022-09-20T07:59:30;21.03;;;11.17;;
16506;SDS011;8366;51.020;7.642;2022-09-20T08:01:56;22.87;;;11.50;;
16506;SDS011;8366;51.020;7.642;2022-09-20T08:04:24;22.13;;;12.57;;
16506;SDS011;8366;51.020;7.642;2022-09-20T08:06:51;23.67;;;12.73;;
16506;SDS011;8366;51.020;7.642;2022-09-20T08:09:17;28.20;;;13.17;;
16506;SDS011;8366;51.020;7.642;2022-09-20T08:11:45;28.73;;;13.63;;
16506;SDS011;8366;51.020;7.642;2022-09-20T08:14:12;29.57;;;14.30;;
16506;SDS011;8366;51.020;7.642;2022-09-20T08:16:40;29.43;;;14.53;;
16506;SDS011;8366;51.020;7.642;2022-09-20T08:19:12;25.30;;;13.60;;
16506;SDS011;8366;51.020;7.642;2022-09-20T08:21:40;28.60;;;14.60;;
16506;SDS011;8366;51.020;7.642;2022-09-20T08:24:06;28.93;;;14.50;;
16506;SDS011;8366;51.020;7.642;2022-09-20T08:26:33;31.63;;;15.20;;
16506;SDS011;8366;51.020;7.642;2022-09-20T08:29:02;32.47;;;15.30;;
16506;SDS011;8366;51.020;7.642;2022-09-20T08:31:30;30.87;;;15.07;;
16506;SDS011;8366;51.020;7.642;2022-09-20T08:34:00;30.70;;;15.60;;
16506;SDS011;8366;51.020;7.642;2022-09-20T08:36:29;30.43;;;17.03;;
16506;SDS011;8366;51.020;7.642;2022-09-20T08:38:57;27.63;;;14.30;;
16506;SDS011;8366;51.020;7.642;2022-09-20T08:41:25;31.03;;;14.17;;
16506;SDS011;8366;51.020;7.642;2022-09-20T08:43:53;23.00;;;10.70;;
16506;SDS011;8366;51.020;7.642;2022-09-20T08:46:23;12.43;;;6.83;;
16506;SDS011;8366;51.020;7.642;2022-09-20T08:48:52;20.17;;;10.40;;
16506;SDS011;8366;51.020;7.642;2022-09-20T08:51:19;15.57;;;8.53;;
16506;SDS011;8366;51.020;7.642;2022-09-20T08:53:46;22.47;;;11.27;;
16506;SDS011;8366;51.020;7.642;2022-09-20T08:56:14;18.53;;;10.33;;
16506;SDS011;8366;51.020;7.642;2022-09-20T08:58:41;18.10;;;9.87;;
16506;SDS011;8366;51.020;7.642;2022-09-20T09:01:09;13.77;;;6.67;;
16506;SDS011;8366;51.020;7.642;2022-09-20T09:03:37;12.27;;;6.73;;
16506;SDS011;8366;51.020;7.642;2022-09-20T09:06:04;12.17;;;6.53;;
16506;SDS011;8366;51.020;7.642;2022-09-20T09:08:33;13.60;;;6.67;;
16506;SDS011;8366;51.020;7.642;2022-09-20T09:11:01;10.97;;;5.57;;
16506;SDS011;8366;51.020;7.642;2022-09-20T09:13:34;8.10;;;4.13;;
16506;SDS011;8366;51.020;7.642;2022-09-20T09:16:05;10.90;;;3.73;;
16506;SDS011;8366;51.020;7.642;2022-09-20T09:18:35;9.37;;;3.97;;
16506;SDS011;8366;51.020;7.642;2022-09-20T09:21:05;10.33;;;3.70;;
16506;SDS011;8366;51.020;7.642;2022-09-20T09:23:37;6.07;;;3.80;;
16506;SDS011;8366;51.020;7.642;2022-09-20T09:26:11;4.83;;;2.90;;
16506;SDS011;8366;51.020;7.642;2022-09-20T09:28:40;6.27;;;3.37;;
16506;SDS011;8366;51.020;7.642;2022-09-20T09:31:12;8.33;;;2.70;;
16506;SDS011;8366;51.020;7.642;2022-09-20T09:33:43;4.97;;;2.30;;
16506;SDS011;8366;51.020;7.642;2022-09-20T09:36:12;4.20;;;2.33;;
16506;SDS011;8366;51.020;7.642;2022-09-20T09:38:40;5.60;;;2.30;;
16506;SDS011;8366;51.020;7.642;2022-09-20T09:41:18;11.87;;;2.87;;
16506;SDS011;8366;51.020;7.642;2022-09-20T09:43:56;6.10;;;2.43;;
16506;SDS011;8366;51.020;7.642;2022-09-20T09:46:24;7.37;;;2.40;;
16506;SDS011;8366;51.020;7.642;2022-09-20T09:49:04;5.53;;;2.43;;
16506;SDS011;8366;51.020;7.642;2022-09-20T09:51:33;9.70;;;2.10;;
16506;SDS011;8366;51.020;7.642;2022-09-20T09:53:59;5.73;;;2.50;;
16506;SDS011;8366;51.020;7.642;2022-09-20T09:56:31;4.83;;;2.47;;
16506;SDS011;8366;51.020;7.642;2022-09-20T09:59:17;10.20;;;2.70;;
16506;SDS011;8366;51.020;7.642;2022-09-20T10:02:01;5.95;;;1.90;;
16506;SDS011;8366;51.020;7.642;2022-09-20T10:07:28;7.55;;;1.90;;
16506;SDS011;8366;51.020;7.642;2022-09-20T10:10:06;4.90;;;1.43;;
16506;SDS011;8366;51.020;7.642;2022-09-20T10:12:49;6.17;;;1.67;;
16506;SDS011;8366;51.020;7.642;2022-09-20T10:15:27;7.53;;;1.40;;
16506;SDS011;8366;51.020;7.642;2022-09-20T10:18:02;5.40;;;1.30;;
16506;SDS011;8366;51.020;7.642;2022-09-20T10:20:49;5.97;;;1.35;;
16506;SDS011;8366;51.020;7.642;2022-09-20T10:23:25;6.82;;;1.40;;
16506;SDS011;8366;51.020;7.642;2022-09-20T10:25:58;7.57;;;1.20;;
16506;SDS011;8366;51.020;7.642;2022-09-20T10:28:33;5.05;;;1.50;;
16506;SDS011;8366;51.020;7.642;2022-09-20T10:31:15;5.20;;;1.30;;
16506;SDS011;8366;51.020;7.642;2022-09-20T10:33:50;4.65;;;1.10;;
16506;SDS011;8366;51.020;7.642;2022-09-20T10:36:26;6.25;;;1.42;;
16506;SDS011;8366;51.020;7.642;2022-09-20T10:38:58;4.78;;;1.13;;
16506;SDS011;8366;51.020;7.642;2022-09-20T10:41:31;5.30;;;1.50;;
16506;SDS011;8366;51.020;7.642;2022-09-20T10:44:38;5.78;;;1.50;;
16506;SDS011;8366;51.020;7.642;2022-09-20T10:47:12;6.40;;;1.70;;
16506;SDS011;8366;51.020;7.642;2022-09-20T10:49:44;4.57;;;1.20;;
16506;SDS011;8366;51.020;7.642;2022-09-20T10:52:30;5.03;;;1.55;;
16506;SDS011;8366;51.020;7.642;2022-09-20T10:55:10;6.05;;;1.50;;
16506;SDS011;8366;51.020;7.642;2022-09-20T10:58:03;3.28;;;1.30;;
16506;SDS011;8366;51.020;7.642;2022-09-20T11:00:56;5.45;;;1.00;;
16506;SDS011;8366;51.020;7.642;2022-09-20T11:03:30;4.85;;;1.40;;
16506;SDS011;8366;51.020;7.642;2022-09-20T11:06:07;4.25;;;2.55;;
16506;SDS011;8366;51.020;7.642;2022-09-20T11:08:39;6.07;;;1.60;;
16506;SDS011;8366;51.020;7.642;2022-09-20T11:11:07;3.50;;;1.30;;
16506;SDS011;8366;51.020;7.642;2022-09-20T11:13:37;6.07;;;1.38;;
16506;SDS011;8366;51.020;7.642;2022-09-20T11:16:08;6.82;;;1.30;;
16506;SDS011;8366;51.020;7.642;2022-09-20T11:18:38;1.75;;;1.00;;
16506;SDS011;8366;51.020;7.642;2022-09-20T11:21:09;3.90;;;1.00;;
16506;SDS011;8366;51.020;7.642;2022-09-20T11:23:45;5.28;;;1.38;;
16506;SDS011;8366;51.020;7.642;2022-09-20T11:26:16;5.32;;;1.33;;
16506;SDS011;8366;51.020;7.642;2022-09-20T11:28:47;4.25;;;1.40;;
16506;SDS011;8366;51.020;7.642;2022-09-20T11:31:16;6.97;;;1.50;;
16506;SDS011;8366;51.020;7.642;2022-09-20T11:33:46;3.70;;;1.60;;
16506;SDS011;8366;51.020;7.642;2022-09-20T11:36:17;4.00;;;1.50;;
16506;SDS011;8366;51.020;7.642;2022-09-20T11:38:47;6.32;;;1.48;;
16506;SDS011;8366;51.020;7.642;2022-09-20T11:41:17;3.53;;;1.45;;
16506;SDS011;8366;51.020;7.642;2022-09-20T11:43:45;2.45;;;1.27;;
16506;SDS011;8366;51.020;7.642;2022-09-20T11:46:13;3.67;;;1.27;;
16506;SDS011;8366;51.020;7.642;2022-09-20T11:48:44;7.30;;;1.40;;
16506;SDS011;8366;51.020;7.642;2022-09-20T11:57:18;10.57;;;1.60;;
16506;SDS011;8366;51.020;7.642;2022-09-20T11:59:48;2.90;;;1.50;;
16506;SDS011;8366;51.020;7.642;2022-09-20T12:02:18;3.45;;;1.40;;
16506;SDS011;8366;51.020;7.642;2022-09-20T12:04:47;7.15;;;1.58;;
16506;SDS011;8366;51.020;7.642;2022-09-20T12:07:18;3.33;;;1.30;;
16506;SDS011;8366;51.020;7.642;2022-09-20T12:09:58;4.85;;;1.50;;
16506;SDS011;8366;51.020;7.642;2022-09-20T12:12:34;2.80;;;1.20;;
16506;SDS011;8366;51.020;7.642;2022-09-20T12:15:04;3.70;;;1.10;;
16506;SDS011;8366;51.020;7.642;2022-09-20T12:20:59;4.72;;;1.33;;
16506;SDS011;8366;51.020;7.642;2022-09-20T12:23:45;3.38;;;0.90;;
16506;SDS011;8366;51.020;7.642;2022-09-20T12:26:41;3.80;;;1.45;;
16506;SDS011;8366;51.020;7.642;2022-09-20T12:32:33;1.45;;;1.17;;
16506;SDS011;8366;51.020;7.642;2022-09-20T12:38:27;2.20;;;1.10;;
16506;SDS011;8366;51.020;7.642;2022-09-20T12:41:06;3.20;;;1.30;;
16506;SDS011;8366;51.020;7.642;2022-09-20T12:43:36;2.70;;;1.13;;
16506;SDS011;8366;51.020;7.642;2022-09-20T12:46:18;4.82;;;1.55;;
16506;SDS011;8366;51.020;7.642;2022-09-20T12:48:46;2.63;;;1.30;;
16506;SDS011;8366;51.020;7.642;2022-09-20T12:51:16;6.38;;;1.80;;
16506;SDS011;8366;51.020;7.642;2022-09-20T12:54:03;5.95;;;1.63;;
16506;SDS011;8366;51.020;7.642;2022-09-20T12:56:33;5.55;;;1.63;;
16506;SDS011;8366;51.020;7.642;2022-09-20T12:59:02;3.83;;;1.88;;
16506;SDS011;8366;51.020;7.642;2022-09-20T13:01:33;4.28;;;1.15;;
16506;SDS011;8366;51.020;7.642;2022-09-20T13:10:02;3.08;;;1.42;;
16506;SDS011;8366;51.020;7.642;2022-09-20T13:12:45;3.58;;;1.67;;
16506;SDS011;8366;51.020;7.642;2022-09-20T13:15:17;2.63;;;1.40;;
16506;SDS011;8366;51.020;7.642;2022-09-20T13:17:46;4.32;;;1.33;;
16506;SDS011;8366;51.020;7.642;2022-09-20T13:20:16;3.63;;;1.67;;
16506;SDS011;8366;51.020;7.642;2022-09-20T13:22:46;4.00;;;1.80;;
16506;SDS011;8366;51.020;7.642;2022-09-20T13:25:13;3.20;;;2.13;;
16506;SDS011;8366;51.020;7.642;2022-09-20T13:27:42;3.95;;;1.80;;
16506;SDS011;8366;51.020;7.642;2022-09-20T13:30:13;3.22;;;1.75;;
16506;SDS011;8366;51.020;7.642;2022-09-20T13:32:44;4.38;;;1.80;;
16506;SDS011;8366;51.020;7.642;2022-09-20T13:35:12;4.85;;;2.20;;
16506;SDS011;8366;51.020;7.642;2022-09-20T13:37:45;7.47;;;2.28;;
16506;SDS011;8366;51.020;7.642;2022-09-20T13:40:16;4.25;;;2.10;;
16506;SDS011;8366;51.020;7.642;2022-09-20T13:42:44;2.78;;;1.85;;
16506;SDS011;8366;51.020;7.642;2022-09-20T13:45:11;3.55;;;1.98;;
16506;SDS011;8366;51.020;7.642;2022-09-20T13:47:41;5.80;;;2.20;;
16506;SDS011;8366;51.020;7.642;2022-09-20T13:50:15;4.13;;;1.80;;
16506;SDS011;8366;51.020;7.642;2022-09-20T13:52:43;2.40;;;1.50;;
16506;SDS011;8366;51.020;7.642;2022-09-20T13:55:21;3.65;;;1.48;;
16506;SDS011;8366;51.020;7.642;2022-09-20T13:57:59;3.65;;;1.88;;
16506;SDS011;8366;51.020;7.642;2022-09-20T14:00:28;3.65;;;1.65;;
16506;SDS011;8366;51.020;7.642;2022-09-20T14:02:56;3.53;;;1.83;;
16506;SDS011;8366;51.020;7.642;2022-09-20T14:05:24;5.00;;;2.08;;
16506;SDS011;8366;51.020;7.642;2022-09-20T14:07:52;4.57;;;1.73;;
16506;SDS011;8366;51.020;7.642;2022-09-20T14:10:31;5.22;;;1.90;;
16506;SDS011;8366;51.020;7.642;2022-09-20T14:12:59;5.85;;;1.90;;
16506;SDS011;8366;51.020;7.642;2022-09-20T14:15:27;6.20;;;1.80;;
16506;SDS011;8366;51.020;7.642;2022-09-20T14:17:58;3.35;;;1.60;;
16506;SDS011;8366;51.020;7.642;2022-09-20T14:20:28;7.30;;;1.90;;
16506;SDS011;8366;51.020;7.642;2022-09-20T14:22:55;3.45;;;1.50;;
16506;SDS011;8366;51.020;7.642;2022-09-20T14:25:22;8.45;;;1.70;;
16506;SDS011;8366;51.020;7.642;2022-09-20T14:28:03;5.43;;;1.63;;
16506;SDS011;8366;51.020;7.642;2022-09-20T14:30:33;7.75;;;1.80;;
16506;SDS011;8366;51.020;7.642;2022-09-20T14:33:01;6.75;;;1.92;;
16506;SDS011;8366;51.020;7.642;2022-09-20T14:35:29;4.43;;;1.77;;
16506;SDS011;8366;51.020;7.642;2022-09-20T14:37:57;3.83;;;1.80;;
16506;SDS011;8366;51.020;7.642;2022-09-20T14:40:26;3.33;;;1.58;;
16506;SDS011;8366;51.020;7.642;2022-09-20T14:42:54;3.85;;;1.73;;
16506;SDS011;8366;51.020;7.642;2022-09-20T14:45:23;3.45;;;2.05;;
16506;SDS011;8366;51.020;7.642;2022-09-20T14:47:54;4.07;;;1.67;;
16506;SDS011;8366;51.020;7.642;2022-09-20T14:50:25;4.57;;;1.40;;
16506;SDS011;8366;51.020;7.642;2022-09-20T14:53:00;5.18;;;1.67;;
16506;SDS011;8366;51.020;7.642;2022-09-20T14:55:29;5.43;;;1.80;;
16506;SDS011;8366;51.020;7.642;2022-09-20T14:58:00;4.20;;;1.58;;
16506;SDS011;8366;51.020;7.642;2022-09-20T15:00:29;5.00;;;1.38;;
16506;SDS011;8366;51.020;7.642;2022-09-20T15:03:01;4.82;;;1.73;;
16506;SDS011;8366;51.020;7.642;2022-09-20T15:05:31;2.70;;;1.60;;
16506;SDS011;8366;51.020;7.642;2022-09-20T15:07:57;2.65;;;1.50;;
16506;SDS011;8366;51.020;7.642;2022-09-20T15:10:24;3.10;;;1.50;;
16506;SDS011;8366;51.020;7.642;2022-09-20T15:12:51;3.83;;;1.20;;
16506;SDS011;8366;51.020;7.642;2022-09-20T15:15:17;3.42;;;1.40;;
16506;SDS011;8366;51.020;7.642;2022-09-20T15:17:44;3.45;;;1.20;;
16506;SDS011;8366;51.020;7.642;2022-09-20T15:20:13;2.78;;;1.20;;
16506;SDS011;8366;51.020;7.642;2022-09-20T15:22:43;3.25;;;1.20;;
16506;SDS011;8366;51.020;7.642;2022-09-20T15:25:13;3.80;;;1.23;;
16506;SDS011;8366;51.020;7.642;2022-09-20T15:27:41;3.40;;;1.10;;
16506;SDS011;8366;51.020;7.642;2022-09-20T15:30:10;2.15;;;1.13;;
16506;SDS011;8366;51.020;7.642;2022-09-20T15:32:39;4.00;;;1.10;;
16506;SDS011;8366;51.020;7.642;2022-09-20T15:35:05;1.98;;;1.10;;
16506;SDS011;8366;51.020;7.642;2022-09-20T15:37:32;1.70;;;1.38;;
16506;SDS011;8366;51.020;7.642;2022-09-20T15:40:00;2.97;;;1.30;;
16506;SDS011;8366;51.020;7.642;2022-09-20T15:42:28;4.25;;;1.20;;
16506;SDS011;8366;51.020;7.642;2022-09-20T15:44:54;3.50;;;1.17;;
16506;SDS011;8366;51.020;7.642;2022-09-20T15:47:21;3.20;;;1.48;;
16506;SDS011;8366;51.020;7.642;2022-09-20T15:49:48;1.85;;;1.10;;
16506;SDS011;8366;51.020;7.642;2022-09-20T15:52:14;4.13;;;1.17;;
16506;SDS011;8366;51.020;7.642;2022-09-20T15:54:41;4.53;;;1.48;;
16506;SDS011;8366;51.020;7.642;2022-09-20T15:57:10;1.70;;;1.20;;
16506;SDS011;8366;51.020;7.642;2022-09-20T15:59:37;2.78;;;2.45;;
16506;SDS011;8366;51.020;7.642;2022-09-20T16:02:03;1.92;;;1.70;;
16506;SDS011;8366;51.020;7.642;2022-09-20T16:04:30;3.42;;;1.40;;
16506;SDS011;8366;51.020;7.642;2022-09-20T16:06:58;3.97;;;1.30;;
16506;SDS011;8366;51.020;7.642;2022-09-20T16:09:25;3.65;;;1.65;;
16506;SDS011;8366;51.020;7.642;2022-09-20T16:11:51;2.92;;;1.33;;
16506;SDS011;8366;51.020;7.642;2022-09-20T16:14:24;2.45;;;1.38;;